createdAt,value
2023-07-06T00:02:25.747Z,12.40
2023-07-06T00:04:53.295Z,11.80
2023-07-06T00:07:22.236Z,12.00
2023-07-06T00:09:49.888Z,11.80
2023-07-06T00:12:18.688Z,13.30
2023-07-06T00:14:45.710Z,11.40
2023-07-06T00:17:13.984Z,12.80
2023-07-06T00:19:41.277Z,12.50
2023-07-06T00:22:09.107Z,10.60
2023-07-06T00:24:36.127Z,12.60
2023-07-06T00:27:03.112Z,15.40
2023-07-06T00:29:35.797Z,11.90
2023-07-06T00:32:16.862Z,12.00
2023-07-06T00:34:45.154Z,9.70
2023-07-06T00:37:17.143Z,9.50
2023-07-06T00:39:44.774Z,11.00
2023-07-06T00:42:15.809Z,10.70
2023-07-06T00:44:47.074Z,10.40
2023-07-06T00:47:14.219Z,11.10
2023-07-06T00:49:40.982Z,11.40
2023-07-06T00:52:08.303Z,10.60
2023-07-06T00:54:36.954Z,14.10
2023-07-06T00:57:04.735Z,11.70
2023-07-06T00:59:31.834Z,11.90
2023-07-06T01:02:00.477Z,11.90
2023-07-06T01:06:55.761Z,11.30
2023-07-06T01:09:23.037Z,9.90
2023-07-06T01:11:50.902Z,10.70
2023-07-06T01:14:17.709Z,10.30
2023-07-06T01:17:06.900Z,11.10
2023-07-06T01:20:05.262Z,10.00
2023-07-06T01:23:14.310Z,12.30
2023-07-06T01:25:59.541Z,12.30
2023-07-06T01:28:35.457Z,16.30
2023-07-06T01:31:38.776Z,10.80
2023-07-06T01:34:17.775Z,9.90
2023-07-06T01:37:06.966Z,12.00
2023-07-06T01:39:33.819Z,11.20
2023-07-06T01:42:24.463Z,10.50
2023-07-06T01:44:51.889Z,7.30
2023-07-06T01:47:19.788Z,9.20
2023-07-06T01:49:48.349Z,8.60
2023-07-06T01:52:51.006Z,11.30
2023-07-06T01:55:25.277Z,12.80
2023-07-06T01:58:11.374Z,10.00
2023-07-06T02:00:42.677Z,12.40
2023-07-06T02:03:09.804Z,12.10
2023-07-06T02:08:09.412Z,11.90
2023-07-06T02:10:36.223Z,13.60
2023-07-06T02:13:04.337Z,12.20
2023-07-06T02:15:31.930Z,13.90
2023-07-06T02:17:59.723Z,10.60
2023-07-06T02:20:26.631Z,8.30
2023-07-06T02:22:53.605Z,11.80
2023-07-06T02:25:21.843Z,10.50
2023-07-06T02:27:50.283Z,10.80
2023-07-06T02:30:17.142Z,11.50
2023-07-06T02:32:44.058Z,11.60
2023-07-06T02:35:11.890Z,13.30
2023-07-06T02:37:41.818Z,12.60
2023-07-06T02:40:10.030Z,9.10
2023-07-06T02:42:37.370Z,11.50
2023-07-06T02:45:06.544Z,10.60
2023-07-06T02:47:34.232Z,9.00
2023-07-06T02:50:01.304Z,9.50
2023-07-06T02:52:28.233Z,10.20
2023-07-06T02:54:56.000Z,10.10
2023-07-06T02:57:23.144Z,10.70
2023-07-06T02:59:49.866Z,10.60
2023-07-06T03:02:20.484Z,10.10
2023-07-06T03:04:47.825Z,10.50
2023-07-06T03:07:14.901Z,12.60
2023-07-06T03:09:43.948Z,7.40
2023-07-06T03:17:05.347Z,11.20
2023-07-06T03:19:32.603Z,10.20
2023-07-06T03:22:00.330Z,11.30
2023-07-06T03:24:27.428Z,10.40
2023-07-06T03:26:54.350Z,11.30
2023-07-06T03:29:21.492Z,10.30
2023-07-06T03:31:48.401Z,11.40
2023-07-06T03:34:16.489Z,8.80
2023-07-06T03:36:43.255Z,8.80
2023-07-06T03:39:12.774Z,10.40
2023-07-06T03:41:40.346Z,9.60
2023-07-06T03:44:07.476Z,10.20
2023-07-06T03:46:35.862Z,12.00
2023-07-06T03:49:04.610Z,10.90
2023-07-06T03:54:07.396Z,12.50
2023-07-06T03:56:38.672Z,10.40
2023-07-06T03:59:06.754Z,7.90
2023-07-06T04:01:34.753Z,7.40
2023-07-06T04:04:01.897Z,11.30
2023-07-06T04:06:29.888Z,11.30
2023-07-06T04:08:59.711Z,12.90
2023-07-06T04:11:26.558Z,11.80
2023-07-06T04:13:58.956Z,12.00
2023-07-06T04:16:26.327Z,12.30
2023-07-06T04:18:53.596Z,11.90
2023-07-06T04:21:20.555Z,11.60
2023-07-06T04:23:49.102Z,8.40
2023-07-06T04:26:16.803Z,10.60
2023-07-06T04:28:44.189Z,10.10
2023-07-06T04:31:16.690Z,15.80
2023-07-06T04:33:47.756Z,15.40
2023-07-06T04:36:18.905Z,12.60
2023-07-06T04:38:45.925Z,12.10
2023-07-06T04:41:13.743Z,12.80
2023-07-06T04:43:41.001Z,12.20
2023-07-06T04:46:08.186Z,11.00
2023-07-06T04:48:35.795Z,9.70
2023-07-06T04:51:02.947Z,12.40
2023-07-06T04:53:30.079Z,9.10
2023-07-06T04:56:01.045Z,11.00
2023-07-06T04:58:30.415Z,11.50
2023-07-06T05:00:58.423Z,14.00
2023-07-06T05:03:25.740Z,13.80
2023-07-06T05:05:52.652Z,14.00
2023-07-06T05:08:23.148Z,14.50
2023-07-06T05:10:52.359Z,14.20
2023-07-06T05:13:20.384Z,12.20
2023-07-06T05:15:47.344Z,13.40
2023-07-06T05:18:14.068Z,11.70
2023-07-06T05:20:41.989Z,13.90
2023-07-06T05:23:10.012Z,11.80
2023-07-06T05:25:37.694Z,13.20
2023-07-06T05:28:04.636Z,18.20
2023-07-06T05:30:32.073Z,13.80
2023-07-06T05:32:58.942Z,17.40
2023-07-06T05:35:25.789Z,19.90
2023-07-06T05:37:53.180Z,14.60
2023-07-06T05:40:19.997Z,17.30
2023-07-06T05:42:47.383Z,16.60
2023-07-06T05:45:14.843Z,14.10
2023-07-06T05:47:41.753Z,12.40
2023-07-06T05:50:08.960Z,18.10
2023-07-06T05:52:35.950Z,15.10
2023-07-06T05:55:02.986Z,16.70
2023-07-06T05:57:30.144Z,16.30
2023-07-06T05:59:57.216Z,13.50
2023-07-06T06:02:24.278Z,10.70
2023-07-06T06:04:53.134Z,14.00
2023-07-06T06:07:20.812Z,13.20
2023-07-06T06:09:50.716Z,10.50
2023-07-06T06:12:22.320Z,13.90
2023-07-06T06:14:49.870Z,15.10
2023-07-06T06:17:17.012Z,11.20
2023-07-06T06:19:47.017Z,12.30
2023-07-06T06:22:15.623Z,11.40
2023-07-06T06:24:43.982Z,12.80
2023-07-06T06:27:18.472Z,12.80
2023-07-06T06:29:48.254Z,12.80
2023-07-06T06:32:15.189Z,11.80
2023-07-06T06:34:43.375Z,10.00
2023-07-06T06:37:10.878Z,11.00
2023-07-06T06:39:40.591Z,10.60
2023-07-06T06:42:08.611Z,12.70
2023-07-06T06:44:36.683Z,14.30
2023-07-06T06:47:05.594Z,12.90
2023-07-06T06:49:35.554Z,16.50
2023-07-06T06:52:03.388Z,14.80
2023-07-06T06:56:58.795Z,11.00
2023-07-06T06:59:25.586Z,10.80
2023-07-06T07:01:52.709Z,9.40
2023-07-06T07:04:21.332Z,11.30
2023-07-06T07:06:48.328Z,11.30
2023-07-06T07:09:15.096Z,12.10
2023-07-06T07:11:42.144Z,12.30
2023-07-06T07:14:11.547Z,11.70
2023-07-06T07:16:40.892Z,11.30
2023-07-06T07:19:07.863Z,9.00
2023-07-06T07:21:37.057Z,12.10
2023-07-06T07:26:32.012Z,8.30
2023-07-06T07:31:12.597Z,11.20
2023-07-06T07:33:44.183Z,12.00
2023-07-06T07:36:12.302Z,8.10
2023-07-06T07:38:40.721Z,7.20
2023-07-06T07:41:08.345Z,8.40
2023-07-06T07:46:04.980Z,11.30
2023-07-06T07:48:34.382Z,11.70
2023-07-06T07:51:04.131Z,13.80
2023-07-06T07:53:33.522Z,12.20
2023-07-06T07:56:00.798Z,13.80
2023-07-06T07:58:29.278Z,18.60
2023-07-06T08:00:59.218Z,12.80
2023-07-06T08:03:26.686Z,11.70
2023-07-06T08:05:59.321Z,17.40
2023-07-06T08:08:26.766Z,11.60
2023-07-06T08:10:57.170Z,11.80
2023-07-06T08:13:24.044Z,11.90
2023-07-06T08:15:52.088Z,11.20
2023-07-06T08:18:19.014Z,12.40
2023-07-06T08:21:07.849Z,12.80
2023-07-06T08:23:36.054Z,11.90
2023-07-06T08:26:05.696Z,9.90
2023-07-06T08:28:33.137Z,10.70
2023-07-06T08:31:04.340Z,14.50
2023-07-06T08:33:33.610Z,11.40
2023-07-06T08:36:02.613Z,12.00
2023-07-06T08:38:29.998Z,13.20
2023-07-06T08:40:57.603Z,11.90
2023-07-06T08:43:26.180Z,12.00
2023-07-06T08:48:26.816Z,10.30
2023-07-06T08:50:59.603Z,10.10
2023-07-06T08:53:28.717Z,10.10
2023-07-06T08:55:57.257Z,11.20
2023-07-06T08:58:26.365Z,11.60
2023-07-06T09:00:56.888Z,9.80
2023-07-06T09:03:24.722Z,11.70
2023-07-06T09:05:52.305Z,9.60
2023-07-06T09:08:19.553Z,10.50
2023-07-06T09:10:49.601Z,10.80
2023-07-06T09:13:27.624Z,10.40
2023-07-06T09:15:57.703Z,11.60
2023-07-06T09:18:24.837Z,10.90
2023-07-06T09:20:52.191Z,9.10
2023-07-06T09:23:19.137Z,10.40
2023-07-06T09:25:47.454Z,10.80
2023-07-06T09:28:17.334Z,8.70
2023-07-06T09:30:44.908Z,9.20
2023-07-06T09:33:16.075Z,11.00
2023-07-06T09:35:43.289Z,8.20
2023-07-06T09:38:14.167Z,9.20
2023-07-06T09:40:44.815Z,8.20
2023-07-06T09:43:26.394Z,10.00
2023-07-06T09:45:53.369Z,9.20
2023-07-06T09:48:33.418Z,11.00
2023-07-06T09:51:15.479Z,9.90
2023-07-06T09:53:59.453Z,9.20
2023-07-06T09:56:26.566Z,9.20
2023-07-06T09:58:54.310Z,8.40
2023-07-06T10:01:33.811Z,8.10
2023-07-06T10:04:16.231Z,8.90
2023-07-06T10:07:03.156Z,8.50
2023-07-06T10:09:44.029Z,10.40
2023-07-06T10:14:50.180Z,9.50
2023-07-06T10:17:36.493Z,8.20
2023-07-06T10:20:19.559Z,8.70
2023-07-06T10:23:01.550Z,8.20
2023-07-06T10:26:02.211Z,11.80
2023-07-06T10:28:52.298Z,10.10
2023-07-06T10:31:30.588Z,9.10
2023-07-06T10:34:04.039Z,8.00
2023-07-06T10:36:33.516Z,8.60
2023-07-06T10:39:04.419Z,7.20
2023-07-06T10:41:33.002Z,10.60
2023-07-06T10:44:04.033Z,8.00
2023-07-06T10:46:35.178Z,10.10
2023-07-06T10:49:18.106Z,9.60
2023-07-06T10:51:53.191Z,8.60
2023-07-06T10:54:28.115Z,7.50
2023-07-06T10:57:05.024Z,7.80
2023-07-06T10:59:42.671Z,8.60
2023-07-06T11:02:27.507Z,7.70
2023-07-06T11:05:08.354Z,8.20
2023-07-06T11:07:36.574Z,7.50
2023-07-06T11:10:14.909Z,8.90
2023-07-06T11:12:56.420Z,10.00
2023-07-06T11:15:26.852Z,11.30
2023-07-06T11:17:54.443Z,8.00
2023-07-06T11:20:26.260Z,9.00
2023-07-06T11:22:57.721Z,12.40
2023-07-06T11:25:24.544Z,11.40
2023-07-06T11:27:54.851Z,10.50
2023-07-06T11:30:29.576Z,9.50
2023-07-06T11:33:14.659Z,7.80
2023-07-06T11:35:57.014Z,7.90
2023-07-06T11:38:39.500Z,8.20
2023-07-06T11:41:10.534Z,10.30
2023-07-06T11:44:14.851Z,10.40
2023-07-06T11:46:58.253Z,8.20
2023-07-06T11:49:34.062Z,8.00
2023-07-06T11:52:06.767Z,8.40
2023-07-06T11:54:56.073Z,8.50
2023-07-06T11:57:44.192Z,7.10
2023-07-06T12:00:16.548Z,7.30
2023-07-06T12:03:09.740Z,7.60
2023-07-06T12:05:41.634Z,7.70
2023-07-06T12:08:38.253Z,6.80
2023-07-06T12:11:11.772Z,6.50
2023-07-06T12:13:43.886Z,7.80
2023-07-06T12:16:15.470Z,6.40
2023-07-06T12:18:42.849Z,5.50
2023-07-06T12:21:22.281Z,6.70
2023-07-06T12:23:49.540Z,7.00
2023-07-06T12:26:16.851Z,8.60
2023-07-06T12:28:53.016Z,6.30
2023-07-06T12:31:22.348Z,7.70
2023-07-06T12:33:49.433Z,5.30
2023-07-06T12:36:16.402Z,6.00
2023-07-06T12:38:47.738Z,5.60
2023-07-06T12:41:21.808Z,5.10
2023-07-06T12:43:50.910Z,4.80
2023-07-06T12:46:23.195Z,5.70
2023-07-06T12:48:54.745Z,8.20
2023-07-06T12:51:25.854Z,6.20
2023-07-06T12:53:53.073Z,6.00
2023-07-06T12:56:21.559Z,5.80
2023-07-06T12:58:55.305Z,5.80
2023-07-06T13:01:26.834Z,5.60
2023-07-06T13:03:58.290Z,5.20
2023-07-06T13:06:27.151Z,6.50
2023-07-06T13:08:58.516Z,6.30
2023-07-06T13:11:27.358Z,5.90
2023-07-06T13:13:56.503Z,6.30
2023-07-06T13:16:23.481Z,5.30
2023-07-06T13:18:52.553Z,5.70
2023-07-06T13:21:26.914Z,5.40
2023-07-06T13:23:56.724Z,5.60
2023-07-06T13:26:28.007Z,6.50
2023-07-06T13:28:55.225Z,7.30
2023-07-06T13:31:22.844Z,7.20
2023-07-06T13:33:50.179Z,6.50
2023-07-06T13:36:18.986Z,6.80
2023-07-06T13:38:48.059Z,7.40
2023-07-06T13:41:18.171Z,6.40
2023-07-06T13:43:46.358Z,7.00
2023-07-06T13:46:14.311Z,7.70
2023-07-06T13:48:41.800Z,7.10
2023-07-06T13:51:10.075Z,6.90
2023-07-06T13:56:06.974Z,9.20
2023-07-06T13:58:34.135Z,6.80
2023-07-06T14:01:00.980Z,6.80
2023-07-06T14:03:29.923Z,7.30
2023-07-06T14:05:58.945Z,6.40
2023-07-06T14:08:26.828Z,6.70
2023-07-06T14:10:54.819Z,7.00
2023-07-06T14:13:23.546Z,7.00
2023-07-06T14:15:50.710Z,7.10
2023-07-06T14:18:17.754Z,7.90
2023-07-06T14:20:46.122Z,6.90
2023-07-06T14:23:17.267Z,7.50
2023-07-06T14:25:45.455Z,7.40
2023-07-06T14:28:14.062Z,8.70
2023-07-06T14:30:44.520Z,7.30
2023-07-06T14:33:11.794Z,7.40
2023-07-06T14:35:38.753Z,7.80
2023-07-06T14:38:09.594Z,6.80
2023-07-06T14:40:37.188Z,7.20
2023-07-06T14:43:04.751Z,8.50
2023-07-06T14:45:33.107Z,7.90
2023-07-06T14:48:03.302Z,7.00
2023-07-06T14:50:30.469Z,6.90
2023-07-06T14:52:59.847Z,7.20
2023-07-06T14:55:28.426Z,7.30
2023-07-06T14:57:55.551Z,9.80
2023-07-06T15:00:22.704Z,7.70
2023-07-06T15:02:50.498Z,6.70
2023-07-06T15:05:17.863Z,7.90
2023-07-06T15:07:44.855Z,9.20
2023-07-06T15:10:13.614Z,6.90
2023-07-06T15:12:41.998Z,8.50
2023-07-06T15:15:10.795Z,7.40
2023-07-06T15:17:38.216Z,7.50
2023-07-06T15:20:07.687Z,8.10
2023-07-06T15:30:19.530Z,8.50
2023-07-06T15:32:46.914Z,8.10
2023-07-06T15:35:13.716Z,8.50
2023-07-06T15:37:41.892Z,6.80
2023-07-06T15:40:09.338Z,8.10
2023-07-06T15:42:36.202Z,8.00
2023-07-06T15:45:03.323Z,7.20
2023-07-06T15:47:33.549Z,7.30
2023-07-06T15:50:06.710Z,8.00
2023-07-06T15:52:35.129Z,7.40
2023-07-06T15:55:02.227Z,7.40
2023-07-06T15:57:29.267Z,8.10
2023-07-06T16:00:09.455Z,6.40
2023-07-06T16:02:41.755Z,7.30
2023-07-06T16:05:09.451Z,5.60
2023-07-06T16:07:36.236Z,8.90
2023-07-06T16:10:03.214Z,6.80
2023-07-06T16:12:32.390Z,7.80
2023-07-06T16:14:59.467Z,6.90
2023-07-06T16:17:26.855Z,6.90
2023-07-06T16:19:53.927Z,7.10
2023-07-06T16:22:20.765Z,6.40
2023-07-06T16:24:48.049Z,7.10
2023-07-06T16:27:15.266Z,7.40
2023-07-06T16:29:42.029Z,6.30
2023-07-06T16:32:09.134Z,6.30
2023-07-06T16:34:35.931Z,6.40
2023-07-06T16:37:02.962Z,5.50
2023-07-06T16:39:30.569Z,6.20
2023-07-06T16:41:57.573Z,6.40
2023-07-06T16:44:24.875Z,6.50
2023-07-06T16:46:51.787Z,7.40
2023-07-06T16:49:18.580Z,6.00
2023-07-06T16:51:45.432Z,5.90
2023-07-06T16:54:12.242Z,7.60
2023-07-06T16:56:39.299Z,8.50
2023-07-06T16:59:06.471Z,7.20
2023-07-06T17:01:35.890Z,7.70
2023-07-06T17:04:02.972Z,7.00
2023-07-06T17:06:30.327Z,8.20
2023-07-06T17:08:59.235Z,7.80
2023-07-06T17:11:26.465Z,6.50
2023-07-06T17:13:53.972Z,6.90
2023-07-06T17:16:21.141Z,6.30
2023-07-06T17:18:49.637Z,8.40
2023-07-06T17:21:16.676Z,8.60
2023-07-06T17:23:43.730Z,6.90
2023-07-06T17:26:12.859Z,8.20
2023-07-06T17:28:40.163Z,7.20
2023-07-06T17:31:08.216Z,10.50
2023-07-06T17:33:35.697Z,7.30
2023-07-06T17:36:03.430Z,8.50
2023-07-06T17:38:30.862Z,10.40
2023-07-06T17:41:06.080Z,8.10
2023-07-06T17:43:33.351Z,8.80
2023-07-06T17:46:00.553Z,7.20
2023-07-06T17:48:28.831Z,10.80
2023-07-06T17:50:59.843Z,7.30
2023-07-06T17:53:26.891Z,8.20
2023-07-06T17:55:53.794Z,9.80
2023-07-06T17:58:21.610Z,8.80
2023-07-06T18:00:50.199Z,7.60
2023-07-06T18:03:17.593Z,7.30
2023-07-06T18:05:45.390Z,7.70
2023-07-06T18:08:13.235Z,12.70
2023-07-06T18:10:40.712Z,9.00
2023-07-06T18:13:07.998Z,13.10
2023-07-06T18:15:37.971Z,9.60
2023-07-06T18:18:04.863Z,9.50
2023-07-06T18:20:31.706Z,8.80
2023-07-06T18:22:59.483Z,7.60
2023-07-06T18:25:27.152Z,11.90
2023-07-06T18:27:54.649Z,12.70
2023-07-06T18:30:21.693Z,8.30
2023-07-06T18:32:48.896Z,8.20
2023-07-06T18:35:16.303Z,6.60
2023-07-06T18:37:43.447Z,10.60
2023-07-06T18:40:10.826Z,7.90
2023-07-06T18:42:38.152Z,5.40
2023-07-06T18:45:07.579Z,4.40
2023-07-06T18:47:35.930Z,5.00
2023-07-06T18:50:03.354Z,4.30
2023-07-06T18:52:31.914Z,6.20
2023-07-06T18:54:58.770Z,5.00
2023-07-06T18:57:26.351Z,5.10
2023-07-06T18:59:54.688Z,5.60
2023-07-06T19:02:21.803Z,9.20
2023-07-06T19:04:48.921Z,6.20
2023-07-06T19:07:16.189Z,5.60
2023-07-06T19:09:48.171Z,4.40
2023-07-06T19:12:15.916Z,5.20
2023-07-06T19:14:43.045Z,6.30
2023-07-06T19:17:09.929Z,6.00
2023-07-06T19:19:37.162Z,5.60
2023-07-06T19:22:04.523Z,8.10
2023-07-06T19:24:31.520Z,4.40
2023-07-06T19:26:58.724Z,5.20
2023-07-06T19:29:25.505Z,4.50
2023-07-06T19:32:00.780Z,5.30
2023-07-06T19:34:34.551Z,5.80
2023-07-06T19:37:02.987Z,4.10
2023-07-06T19:39:30.646Z,3.60
2023-07-06T19:41:57.593Z,5.30
2023-07-06T19:44:24.455Z,5.20
2023-07-06T19:46:51.647Z,4.00
2023-07-06T19:49:18.597Z,5.00
2023-07-06T19:51:45.400Z,4.60
2023-07-06T19:54:12.200Z,4.10
2023-07-06T19:56:39.627Z,5.20
2023-07-06T19:59:07.196Z,5.40
2023-07-06T20:01:34.028Z,6.30
2023-07-06T20:04:01.416Z,4.90
2023-07-06T20:06:28.578Z,3.40
2023-07-06T20:08:55.392Z,5.40
2023-07-06T20:11:22.417Z,5.10
2023-07-06T20:16:17.701Z,3.80
2023-07-06T20:18:45.533Z,4.60
2023-07-06T20:21:12.544Z,5.40
2023-07-06T20:23:39.379Z,10.40
2023-07-06T20:26:06.985Z,5.40
2023-07-06T20:28:34.243Z,5.20
2023-07-06T20:31:04.961Z,4.80
2023-07-06T20:33:32.219Z,8.20
2023-07-06T20:35:59.359Z,6.50
2023-07-06T20:38:26.306Z,6.40
2023-07-06T20:40:53.125Z,4.80
2023-07-06T20:43:20.769Z,4.10
2023-07-06T20:45:47.677Z,3.40
2023-07-06T20:48:14.694Z,15.20
2023-07-06T20:50:42.052Z,20.00
2023-07-06T20:53:09.115Z,24.50
2023-07-06T20:55:37.548Z,19.60
2023-07-06T20:58:04.716Z,12.20
2023-07-06T21:00:31.710Z,9.20
2023-07-06T21:02:59.662Z,9.10
2023-07-06T21:05:26.745Z,7.90
2023-07-06T21:07:54.698Z,4.10
2023-07-06T21:10:22.319Z,5.50
2023-07-06T21:12:50.217Z,5.20
2023-07-06T21:15:17.140Z,5.30
2023-07-06T21:17:44.017Z,6.00
2023-07-06T21:20:12.823Z,5.80
2023-07-06T21:22:40.196Z,6.00
2023-07-06T21:25:07.943Z,6.70
2023-07-06T21:27:35.893Z,6.10
2023-07-06T21:30:04.282Z,4.60
2023-07-06T21:32:31.393Z,5.00
2023-07-06T21:34:58.744Z,4.70
2023-07-06T21:37:26.371Z,5.50
2023-07-06T21:39:53.523Z,5.40
2023-07-06T21:42:20.496Z,5.80
2023-07-06T21:44:47.251Z,5.50
2023-07-06T21:47:14.694Z,4.20
2023-07-06T21:49:41.582Z,3.90
2023-07-06T21:52:08.418Z,5.20
2023-07-06T21:54:35.584Z,3.70
2023-07-06T21:57:02.483Z,3.40
2023-07-06T21:59:29.915Z,3.70
2023-07-06T22:01:56.903Z,4.40
2023-07-06T22:04:24.020Z,4.00
2023-07-06T22:06:50.849Z,3.40
2023-07-06T22:09:17.755Z,4.70
2023-07-06T22:11:44.988Z,2.50
2023-07-06T22:14:11.785Z,3.60
2023-07-06T22:16:39.439Z,2.00
2023-07-06T22:19:08.387Z,2.20
2023-07-06T22:21:36.006Z,3.70
2023-07-06T22:24:05.006Z,4.90
2023-07-06T22:26:32.361Z,3.20
2023-07-06T22:28:59.766Z,4.10
2023-07-06T22:31:26.688Z,3.90
2023-07-06T22:33:53.622Z,3.50
2023-07-06T22:36:20.423Z,10.10
2023-07-06T22:38:48.321Z,20.80
2023-07-06T22:41:16.362Z,8.20
2023-07-06T22:43:43.394Z,6.70
2023-07-06T22:46:10.247Z,12.20
2023-07-06T22:48:37.215Z,16.90
2023-07-06T22:51:04.239Z,22.00
2023-07-06T22:53:31.538Z,8.90
2023-07-06T22:55:58.861Z,6.70
2023-07-06T22:58:26.504Z,30.60
2023-07-06T23:00:55.115Z,20.70
2023-07-06T23:03:22.773Z,16.80
2023-07-06T23:05:50.012Z,5.00
2023-07-06T23:08:17.138Z,4.60
